sensor_id;sensor_type;location;lat;lon;timestamp;P1;durP1;ratioP1;P2;durP2;ratioP2
58240;SDS011;45058;55.772;38.224;2024-01-15T00:00:15;20.43;;;9.37;;
58240;SDS011;45058;55.772;38.224;2024-01-15T00:02:42;24.83;;;10.90;;
58240;SDS011;45058;55.772;38.224;2024-01-15T00:05:08;22.07;;;10.73;;
58240;SDS011;45058;55.772;38.224;2024-01-15T00:07:35;20.03;;;10.03;;
58240;SDS011;45058;55.772;38.224;2024-01-15T00:10:01;22.83;;;11.03;;
58240;SDS011;45058;55.772;38.224;2024-01-15T00:12:29;24.53;;;11.33;;
58240;SDS011;45058;55.772;38.224;2024-01-15T00:14:55;25.10;;;11.00;;
58240;SDS011;45058;55.772;38.224;2024-01-15T00:17:21;18.70;;;10.20;;
58240;SDS011;45058;55.772;38.224;2024-01-15T00:19:47;19.90;;;10.17;;
58240;SDS011;45058;55.772;38.224;2024-01-15T00:22:13;19.73;;;9.63;;
58240;SDS011;45058;55.772;38.224;2024-01-15T00:24:39;18.90;;;10.20;;
58240;SDS011;45058;55.772;38.224;2024-01-15T00:27:05;24.90;;;11.33;;
58240;SDS011;45058;55.772;38.224;2024-01-15T00:29:32;16.93;;;8.60;;
58240;SDS011;45058;55.772;38.224;2024-01-15T00:31:58;21.13;;;11.23;;
58240;SDS011;45058;55.772;38.224;2024-01-15T00:34:24;23.20;;;10.57;;
58240;SDS011;45058;55.772;38.224;2024-01-15T00:36:49;26.23;;;10.77;;
58240;SDS011;45058;55.772;38.224;2024-01-15T00:39:15;23.60;;;11.57;;
58240;SDS011;45058;55.772;38.224;2024-01-15T00:41:42;22.83;;;11.10;;
58240;SDS011;45058;55.772;38.224;2024-01-15T00:44:08;22.37;;;10.60;;
58240;SDS011;45058;55.772;38.224;2024-01-15T00:46:41;24.40;;;10.83;;
58240;SDS011;45058;55.772;38.224;2024-01-15T00:49:13;18.53;;;10.10;;
58240;SDS011;45058;55.772;38.224;2024-01-15T00:51:40;22.23;;;11.30;;
58240;SDS011;45058;55.772;38.224;2024-01-15T00:54:06;23.60;;;10.50;;
58240;SDS011;45058;55.772;38.224;2024-01-15T00:56:32;26.93;;;11.77;;
58240;SDS011;45058;55.772;38.224;2024-01-15T00:58:59;22.90;;;11.10;;
58240;SDS011;45058;55.772;38.224;2024-01-15T01:01:26;18.47;;;10.33;;
58240;SDS011;45058;55.772;38.224;2024-01-15T01:03:52;21.43;;;10.40;;
58240;SDS011;45058;55.772;38.224;2024-01-15T01:06:18;25.60;;;10.47;;
58240;SDS011;45058;55.772;38.224;2024-01-15T01:08:43;21.57;;;11.00;;
58240;SDS011;45058;55.772;38.224;2024-01-15T01:11:13;23.07;;;11.50;;
58240;SDS011;45058;55.772;38.224;2024-01-15T01:13:40;21.33;;;10.93;;
58240;SDS011;45058;55.772;38.224;2024-01-15T01:16:06;22.60;;;10.77;;
58240;SDS011;45058;55.772;38.224;2024-01-15T01:18:32;22.73;;;10.60;;
58240;SDS011;45058;55.772;38.224;2024-01-15T01:20:58;21.20;;;10.37;;
58240;SDS011;45058;55.772;38.224;2024-01-15T01:23:24;23.40;;;11.57;;
58240;SDS011;45058;55.772;38.224;2024-01-15T01:25:50;19.50;;;10.30;;
58240;SDS011;45058;55.772;38.224;2024-01-15T01:28:16;23.43;;;11.10;;
58240;SDS011;45058;55.772;38.224;2024-01-15T01:30:42;27.30;;;11.40;;
58240;SDS011;45058;55.772;38.224;2024-01-15T01:33:08;24.17;;;11.80;;
58240;SDS011;45058;55.772;38.224;2024-01-15T01:35:34;28.50;;;11.47;;
58240;SDS011;45058;55.772;38.224;2024-01-15T01:38:00;21.83;;;10.80;;
58240;SDS011;45058;55.772;38.224;2024-01-15T01:40:27;17.87;;;10.27;;
58240;SDS011;45058;55.772;38.224;2024-01-15T01:42:53;25.67;;;12.30;;
58240;SDS011;45058;55.772;38.224;2024-01-15T01:45:19;24.17;;;11.73;;
58240;SDS011;45058;55.772;38.224;2024-01-15T01:47:45;20.50;;;10.83;;
58240;SDS011;45058;55.772;38.224;2024-01-15T01:50:11;24.93;;;11.50;;
58240;SDS011;45058;55.772;38.224;2024-01-15T01:52:38;23.80;;;11.43;;
58240;SDS011;45058;55.772;38.224;2024-01-15T01:55:05;21.83;;;11.47;;
58240;SDS011;45058;55.772;38.224;2024-01-15T01:57:32;24.70;;;11.70;;
58240;SDS011;45058;55.772;38.224;2024-01-15T01:59:59;23.53;;;10.80;;
58240;SDS011;45058;55.772;38.224;2024-01-15T02:02:26;20.47;;;11.07;;
58240;SDS011;45058;55.772;38.224;2024-01-15T02:04:52;24.63;;;11.17;;
58240;SDS011;45058;55.772;38.224;2024-01-15T02:07:18;22.77;;;12.70;;
58240;SDS011;45058;55.772;38.224;2024-01-15T02:09:44;21.23;;;11.17;;
58240;SDS011;45058;55.772;38.224;2024-01-15T02:12:10;22.77;;;11.57;;
58240;SDS011;45058;55.772;38.224;2024-01-15T02:14:37;24.80;;;12.77;;
58240;SDS011;45058;55.772;38.224;2024-01-15T02:17:03;27.30;;;12.40;;
58240;SDS011;45058;55.772;38.224;2024-01-15T02:19:29;19.43;;;11.03;;
58240;SDS011;45058;55.772;38.224;2024-01-15T02:21:55;21.20;;;11.43;;
58240;SDS011;45058;55.772;38.224;2024-01-15T02:24:21;23.77;;;11.10;;
58240;SDS011;45058;55.772;38.224;2024-01-15T02:26:48;21.47;;;11.30;;
58240;SDS011;45058;55.772;38.224;2024-01-15T02:29:15;22.97;;;11.83;;
58240;SDS011;45058;55.772;38.224;2024-01-15T02:31:41;24.70;;;13.13;;
58240;SDS011;45058;55.772;38.224;2024-01-15T02:34:07;22.63;;;12.30;;
58240;SDS011;45058;55.772;38.224;2024-01-15T02:36:33;24.57;;;12.43;;
58240;SDS011;45058;55.772;38.224;2024-01-15T02:38:59;25.93;;;13.07;;
58240;SDS011;45058;55.772;38.224;2024-01-15T02:41:25;22.77;;;11.23;;
58240;SDS011;45058;55.772;38.224;2024-01-15T02:43:51;22.43;;;12.13;;
58240;SDS011;45058;55.772;38.224;2024-01-15T02:46:17;25.07;;;11.50;;
58240;SDS011;45058;55.772;38.224;2024-01-15T02:48:44;25.07;;;13.43;;
58240;SDS011;45058;55.772;38.224;2024-01-15T02:51:10;20.90;;;10.93;;
58240;SDS011;45058;55.772;38.224;2024-01-15T02:53:36;24.40;;;12.80;;
58240;SDS011;45058;55.772;38.224;2024-01-15T02:56:02;25.10;;;11.67;;
58240;SDS011;45058;55.772;38.224;2024-01-15T02:58:29;25.03;;;11.67;;
58240;SDS011;45058;55.772;38.224;2024-01-15T03:00:55;23.33;;;12.33;;
58240;SDS011;45058;55.772;38.224;2024-01-15T03:03:21;22.50;;;13.10;;
58240;SDS011;45058;55.772;38.224;2024-01-15T03:05:47;25.37;;;12.97;;
58240;SDS011;45058;55.772;38.224;2024-01-15T03:08:13;25.77;;;12.63;;
58240;SDS011;45058;55.772;38.224;2024-01-15T03:10:39;28.53;;;13.10;;
58240;SDS011;45058;55.772;38.224;2024-01-15T03:13:05;26.83;;;13.10;;
58240;SDS011;45058;55.772;38.224;2024-01-15T03:15:31;22.27;;;12.20;;
58240;SDS011;45058;55.772;38.224;2024-01-15T03:17:57;24.70;;;12.90;;
58240;SDS011;45058;55.772;38.224;2024-01-15T03:20:23;24.97;;;12.97;;
58240;SDS011;45058;55.772;38.224;2024-01-15T03:22:49;22.63;;;12.60;;
58240;SDS011;45058;55.772;38.224;2024-01-15T03:25:15;25.60;;;13.07;;
58240;SDS011;45058;55.772;38.224;2024-01-15T03:27:41;23.60;;;12.77;;
58240;SDS011;45058;55.772;38.224;2024-01-15T03:30:07;25.33;;;13.30;;
58240;SDS011;45058;55.772;38.224;2024-01-15T03:32:34;26.07;;;13.80;;
58240;SDS011;45058;55.772;38.224;2024-01-15T03:35:00;27.57;;;13.73;;
58240;SDS011;45058;55.772;38.224;2024-01-15T03:37:26;24.80;;;13.57;;
58240;SDS011;45058;55.772;38.224;2024-01-15T03:39:52;28.73;;;14.27;;
58240;SDS011;45058;55.772;38.224;2024-01-15T03:42:18;26.50;;;14.60;;
58240;SDS011;45058;55.772;38.224;2024-01-15T03:44:44;30.80;;;13.93;;
58240;SDS011;45058;55.772;38.224;2024-01-15T03:47:10;29.37;;;15.07;;
58240;SDS011;45058;55.772;38.224;2024-01-15T03:49:36;27.87;;;13.70;;
58240;SDS011;45058;55.772;38.224;2024-01-15T03:52:02;25.83;;;12.23;;
58240;SDS011;45058;55.772;38.224;2024-01-15T03:54:28;29.50;;;14.53;;
58240;SDS011;45058;55.772;38.224;2024-01-15T03:56:54;26.73;;;13.53;;
58240;SDS011;45058;55.772;38.224;2024-01-15T03:59:20;31.23;;;14.43;;
58240;SDS011;45058;55.772;38.224;2024-01-15T04:01:49;29.00;;;13.73;;
58240;SDS011;45058;55.772;38.224;2024-01-15T04:04:19;25.90;;;13.80;;
58240;SDS011;45058;55.772;38.224;2024-01-15T04:06:45;29.57;;;14.73;;
58240;SDS011;45058;55.772;38.224;2024-01-15T04:09:14;30.20;;;14.70;;
58240;SDS011;45058;55.772;38.224;2024-01-15T04:11:40;31.17;;;13.93;;
58240;SDS011;45058;55.772;38.224;2024-01-15T04:14:06;24.93;;;13.70;;
58240;SDS011;45058;55.772;38.224;2024-01-15T04:16:33;31.17;;;13.87;;
58240;SDS011;45058;55.772;38.224;2024-01-15T04:18:59;34.00;;;16.17;;
58240;SDS011;45058;55.772;38.224;2024-01-15T04:21:25;27.33;;;14.73;;
58240;SDS011;45058;55.772;38.224;2024-01-15T04:23:51;29.07;;;14.43;;
58240;SDS011;45058;55.772;38.224;2024-01-15T04:26:17;31.27;;;15.67;;
58240;SDS011;45058;55.772;38.224;2024-01-15T04:28:43;32.73;;;16.87;;
58240;SDS011;45058;55.772;38.224;2024-01-15T04:31:09;29.23;;;14.33;;
58240;SDS011;45058;55.772;38.224;2024-01-15T04:33:35;28.77;;;14.10;;
58240;SDS011;45058;55.772;38.224;2024-01-15T04:36:01;30.60;;;15.70;;
58240;SDS011;45058;55.772;38.224;2024-01-15T04:38:31;26.67;;;16.10;;
58240;SDS011;45058;55.772;38.224;2024-01-15T04:40:58;30.50;;;14.70;;
58240;SDS011;45058;55.772;38.224;2024-01-15T04:43:24;31.80;;;15.77;;
58240;SDS011;45058;55.772;38.224;2024-01-15T04:45:50;30.73;;;15.60;;
58240;SDS011;45058;55.772;38.224;2024-01-15T04:48:16;29.80;;;14.77;;
58240;SDS011;45058;55.772;38.224;2024-01-15T04:50:42;32.37;;;15.40;;
58240;SDS011;45058;55.772;38.224;2024-01-15T04:53:08;27.97;;;15.83;;
58240;SDS011;45058;55.772;38.224;2024-01-15T04:55:34;28.20;;;15.40;;
58240;SDS011;45058;55.772;38.224;2024-01-15T04:58:00;29.60;;;16.40;;
58240;SDS011;45058;55.772;38.224;2024-01-15T05:00:26;30.60;;;16.10;;
58240;SDS011;45058;55.772;38.224;2024-01-15T05:02:52;26.93;;;14.67;;
58240;SDS011;45058;55.772;38.224;2024-01-15T05:05:21;30.23;;;16.37;;
58240;SDS011;45058;55.772;38.224;2024-01-15T05:07:47;33.37;;;16.63;;
58240;SDS011;45058;55.772;38.224;2024-01-15T05:10:13;33.63;;;17.23;;
58240;SDS011;45058;55.772;38.224;2024-01-15T05:12:39;32.40;;;17.00;;
58240;SDS011;45058;55.772;38.224;2024-01-15T05:15:05;32.40;;;16.97;;
58240;SDS011;45058;55.772;38.224;2024-01-15T05:17:31;33.13;;;17.13;;
58240;SDS011;45058;55.772;38.224;2024-01-15T05:19:57;30.90;;;16.13;;
58240;SDS011;45058;55.772;38.224;2024-01-15T05:22:23;29.77;;;17.03;;
58240;SDS011;45058;55.772;38.224;2024-01-15T05:24:50;33.90;;;17.53;;
58240;SDS011;45058;55.772;38.224;2024-01-15T05:27:17;34.30;;;17.10;;
58240;SDS011;45058;55.772;38.224;2024-01-15T05:29:43;30.90;;;17.80;;
58240;SDS011;45058;55.772;38.224;2024-01-15T05:32:09;35.10;;;17.73;;
58240;SDS011;45058;55.772;38.224;2024-01-15T05:34:35;39.13;;;18.60;;
58240;SDS011;45058;55.772;38.224;2024-01-15T05:37:01;37.23;;;18.43;;
58240;SDS011;45058;55.772;38.224;2024-01-15T05:39:28;31.63;;;17.30;;
58240;SDS011;45058;55.772;38.224;2024-01-15T05:41:54;34.67;;;18.90;;
58240;SDS011;45058;55.772;38.224;2024-01-15T05:44:20;38.03;;;18.93;;
58240;SDS011;45058;55.772;38.224;2024-01-15T05:46:48;37.93;;;20.20;;
58240;SDS011;45058;55.772;38.224;2024-01-15T05:49:14;36.10;;;20.07;;
58240;SDS011;45058;55.772;38.224;2024-01-15T05:51:40;38.67;;;19.57;;
58240;SDS011;45058;55.772;38.224;2024-01-15T05:54:06;35.97;;;19.07;;
58240;SDS011;45058;55.772;38.224;2024-01-15T05:56:33;40.73;;;20.10;;
58240;SDS011;45058;55.772;38.224;2024-01-15T05:59:00;35.67;;;19.73;;
58240;SDS011;45058;55.772;38.224;2024-01-15T06:01:26;36.03;;;19.77;;
58240;SDS011;45058;55.772;38.224;2024-01-15T06:03:52;33.87;;;18.63;;
58240;SDS011;45058;55.772;38.224;2024-01-15T06:06:18;36.27;;;20.13;;
58240;SDS011;45058;55.772;38.224;2024-01-15T06:08:44;37.43;;;19.33;;
58240;SDS011;45058;55.772;38.224;2024-01-15T06:11:10;38.10;;;21.53;;
58240;SDS011;45058;55.772;38.224;2024-01-15T06:13:36;33.73;;;18.73;;
58240;SDS011;45058;55.772;38.224;2024-01-15T06:16:02;38.40;;;18.47;;
58240;SDS011;45058;55.772;38.224;2024-01-15T06:18:28;34.83;;;19.97;;
58240;SDS011;45058;55.772;38.224;2024-01-15T06:20:54;36.17;;;18.50;;
58240;SDS011;45058;55.772;38.224;2024-01-15T06:23:20;34.53;;;19.30;;
58240;SDS011;45058;55.772;38.224;2024-01-15T06:25:46;37.93;;;19.60;;
58240;SDS011;45058;55.772;38.224;2024-01-15T06:28:12;37.07;;;19.43;;
58240;SDS011;45058;55.772;38.224;2024-01-15T06:30:39;35.87;;;20.20;;
58240;SDS011;45058;55.772;38.224;2024-01-15T06:33:05;38.23;;;20.57;;
58240;SDS011;45058;55.772;38.224;2024-01-15T06:35:31;40.03;;;20.07;;
58240;SDS011;45058;55.772;38.224;2024-01-15T06:37:57;31.50;;;19.53;;
58240;SDS011;45058;55.772;38.224;2024-01-15T06:40:23;34.73;;;19.50;;
58240;SDS011;45058;55.772;38.224;2024-01-15T06:42:49;35.60;;;20.20;;
58240;SDS011;45058;55.772;38.224;2024-01-15T06:45:15;34.60;;;19.23;;
58240;SDS011;45058;55.772;38.224;2024-01-15T06:47:41;32.90;;;19.10;;
58240;SDS011;45058;55.772;38.224;2024-01-15T06:50:07;39.90;;;21.43;;
58240;SDS011;45058;55.772;38.224;2024-01-15T06:52:34;36.87;;;20.70;;
58240;SDS011;45058;55.772;38.224;2024-01-15T06:55:00;36.60;;;19.67;;
58240;SDS011;45058;55.772;38.224;2024-01-15T06:57:26;34.07;;;18.43;;
58240;SDS011;45058;55.772;38.224;2024-01-15T06:59:52;33.20;;;18.63;;
58240;SDS011;45058;55.772;38.224;2024-01-15T07:02:18;38.03;;;19.67;;
58240;SDS011;45058;55.772;38.224;2024-01-15T07:04:44;31.73;;;18.00;;
58240;SDS011;45058;55.772;38.224;2024-01-15T07:07:10;34.63;;;18.53;;
58240;SDS011;45058;55.772;38.224;2024-01-15T07:09:36;37.20;;;20.53;;
58240;SDS011;45058;55.772;38.224;2024-01-15T07:12:02;36.90;;;19.63;;
58240;SDS011;45058;55.772;38.224;2024-01-15T07:14:28;31.80;;;17.43;;
58240;SDS011;45058;55.772;38.224;2024-01-15T07:16:54;32.20;;;19.80;;
58240;SDS011;45058;55.772;38.224;2024-01-15T07:19:21;35.83;;;19.83;;
58240;SDS011;45058;55.772;38.224;2024-01-15T07:21:47;37.13;;;19.77;;
58240;SDS011;45058;55.772;38.224;2024-01-15T07:24:13;31.00;;;18.33;;
58240;SDS011;45058;55.772;38.224;2024-01-15T07:26:39;37.47;;;20.07;;
58240;SDS011;45058;55.772;38.224;2024-01-15T07:29:05;33.50;;;19.90;;
58240;SDS011;45058;55.772;38.224;2024-01-15T07:31:31;38.13;;;20.97;;
58240;SDS011;45058;55.772;38.224;2024-01-15T07:33:58;31.87;;;18.67;;
58240;SDS011;45058;55.772;38.224;2024-01-15T07:36:25;34.63;;;19.43;;
58240;SDS011;45058;55.772;38.224;2024-01-15T07:38:51;34.93;;;19.53;;
58240;SDS011;45058;55.772;38.224;2024-01-15T07:41:17;37.00;;;18.90;;
58240;SDS011;45058;55.772;38.224;2024-01-15T07:43:43;31.10;;;19.33;;
58240;SDS011;45058;55.772;38.224;2024-01-15T07:46:09;32.73;;;17.47;;
58240;SDS011;45058;55.772;38.224;2024-01-15T07:48:36;35.23;;;20.20;;
58240;SDS011;45058;55.772;38.224;2024-01-15T07:51:02;35.50;;;19.97;;
58240;SDS011;45058;55.772;38.224;2024-01-15T07:53:29;33.83;;;19.83;;
58240;SDS011;45058;55.772;38.224;2024-01-15T07:55:55;35.27;;;19.83;;
58240;SDS011;45058;55.772;38.224;2024-01-15T07:58:21;37.20;;;19.97;;
58240;SDS011;45058;55.772;38.224;2024-01-15T08:00:47;32.43;;;17.97;;
58240;SDS011;45058;55.772;38.224;2024-01-15T08:03:13;34.73;;;19.73;;
58240;SDS011;45058;55.772;38.224;2024-01-15T08:05:40;32.53;;;19.40;;
58240;SDS011;45058;55.772;38.224;2024-01-15T08:08:06;34.23;;;17.83;;
58240;SDS011;45058;55.772;38.224;2024-01-15T08:10:32;31.90;;;19.43;;
58240;SDS011;45058;55.772;38.224;2024-01-15T08:12:58;37.13;;;20.63;;
58240;SDS011;45058;55.772;38.224;2024-01-15T08:15:24;32.33;;;18.33;;
58240;SDS011;45058;55.772;38.224;2024-01-15T08:17:50;35.10;;;19.43;;
58240;SDS011;45058;55.772;38.224;2024-01-15T08:20:16;34.33;;;19.80;;
58240;SDS011;45058;55.772;38.224;2024-01-15T08:22:43;31.03;;;19.13;;
58240;SDS011;45058;55.772;38.224;2024-01-15T08:25:09;32.07;;;18.93;;
58240;SDS011;45058;55.772;38.224;2024-01-15T08:27:35;32.53;;;19.40;;
58240;SDS011;45058;55.772;38.224;2024-01-15T08:30:01;35.03;;;19.03;;
58240;SDS011;45058;55.772;38.224;2024-01-15T08:32:30;35.17;;;19.60;;
58240;SDS011;45058;55.772;38.224;2024-01-15T08:34:56;33.57;;;19.50;;
58240;SDS011;45058;55.772;38.224;2024-01-15T08:37:22;36.00;;;19.13;;
58240;SDS011;45058;55.772;38.224;2024-01-15T08:39:48;32.13;;;18.73;;
58240;SDS011;45058;55.772;38.224;2024-01-15T08:42:14;31.87;;;18.67;;
58240;SDS011;45058;55.772;38.224;2024-01-15T08:44:40;32.77;;;18.43;;
58240;SDS011;45058;55.772;38.224;2024-01-15T08:47:08;35.73;;;19.13;;
58240;SDS011;45058;55.772;38.224;2024-01-15T08:49:34;35.07;;;19.90;;
58240;SDS011;45058;55.772;38.224;2024-01-15T08:52:01;33.77;;;19.90;;
58240;SDS011;45058;55.772;38.224;2024-01-15T08:54:27;34.67;;;19.43;;
58240;SDS011;45058;55.772;38.224;2024-01-15T08:56:54;29.93;;;18.50;;
58240;SDS011;45058;55.772;38.224;2024-01-15T08:59:20;30.83;;;18.27;;
58240;SDS011;45058;55.772;38.224;2024-01-15T09:01:50;37.03;;;20.73;;
58240;SDS011;45058;55.772;38.224;2024-01-15T09:04:16;34.10;;;18.73;;
58240;SDS011;45058;55.772;38.224;2024-01-15T09:06:45;31.37;;;17.93;;
58240;SDS011;45058;55.772;38.224;2024-01-15T09:09:14;29.27;;;18.17;;
58240;SDS011;45058;55.772;38.224;2024-01-15T09:11:41;32.57;;;18.63;;
58240;SDS011;45058;55.772;38.224;2024-01-15T09:14:07;32.77;;;19.47;;
58240;SDS011;45058;55.772;38.224;2024-01-15T09:16:34;29.90;;;17.83;;
58240;SDS011;45058;55.772;38.224;2024-01-15T09:19:00;32.77;;;17.93;;
58240;SDS011;45058;55.772;38.224;2024-01-15T09:21:27;33.90;;;18.63;;
58240;SDS011;45058;55.772;38.224;2024-01-15T09:23:53;31.60;;;17.47;;
58240;SDS011;45058;55.772;38.224;2024-01-15T09:26:19;30.47;;;17.53;;
58240;SDS011;45058;55.772;38.224;2024-01-15T09:28:45;30.70;;;17.37;;
58240;SDS011;45058;55.772;38.224;2024-01-15T09:31:11;33.67;;;17.77;;
58240;SDS011;45058;55.772;38.224;2024-01-15T09:33:37;34.07;;;16.80;;
58240;SDS011;45058;55.772;38.224;2024-01-15T09:36:03;29.80;;;17.33;;
58240;SDS011;45058;55.772;38.224;2024-01-15T09:38:30;35.07;;;16.90;;
58240;SDS011;45058;55.772;38.224;2024-01-15T09:40:57;28.00;;;16.83;;
58240;SDS011;45058;55.772;38.224;2024-01-15T09:43:23;27.87;;;16.90;;
58240;SDS011;45058;55.772;38.224;2024-01-15T09:45:50;35.87;;;17.67;;
58240;SDS011;45058;55.772;38.224;2024-01-15T09:48:16;29.10;;;16.80;;
58240;SDS011;45058;55.772;38.224;2024-01-15T09:50:43;32.17;;;17.70;;
58240;SDS011;45058;55.772;38.224;2024-01-15T09:53:09;30.37;;;17.80;;
58240;SDS011;45058;55.772;38.224;2024-01-15T09:55:36;29.27;;;16.53;;
58240;SDS011;45058;55.772;38.224;2024-01-15T09:58:03;36.87;;;19.30;;
58240;SDS011;45058;55.772;38.224;2024-01-15T10:00:30;34.80;;;17.67;;
58240;SDS011;45058;55.772;38.224;2024-01-15T10:02:58;32.80;;;16.90;;
58240;SDS011;45058;55.772;38.224;2024-01-15T10:05:26;31.03;;;18.00;;
58240;SDS011;45058;55.772;38.224;2024-01-15T10:07:53;32.23;;;18.50;;
58240;SDS011;45058;55.772;38.224;2024-01-15T10:10:21;34.63;;;19.03;;
58240;SDS011;45058;55.772;38.224;2024-01-15T10:12:48;32.93;;;18.70;;
58240;SDS011;45058;55.772;38.224;2024-01-15T10:15:15;32.77;;;19.70;;
58240;SDS011;45058;55.772;38.224;2024-01-15T10:17:42;30.73;;;17.83;;
58240;SDS011;45058;55.772;38.224;2024-01-15T10:20:09;28.97;;;17.57;;
58240;SDS011;45058;55.772;38.224;2024-01-15T10:22:39;30.87;;;18.33;;
58240;SDS011;45058;55.772;38.224;2024-01-15T10:25:09;28.33;;;16.57;;
58240;SDS011;45058;55.772;38.224;2024-01-15T10:27:36;28.13;;;17.43;;
58240;SDS011;45058;55.772;38.224;2024-01-15T10:30:02;29.00;;;16.03;;
58240;SDS011;45058;55.772;38.224;2024-01-15T10:32:30;27.53;;;16.47;;
58240;SDS011;45058;55.772;38.224;2024-01-15T10:34:56;24.90;;;16.20;;
58240;SDS011;45058;55.772;38.224;2024-01-15T10:37:23;30.17;;;17.13;;
58240;SDS011;45058;55.772;38.224;2024-01-15T10:39:51;26.57;;;15.80;;
58240;SDS011;45058;55.772;38.224;2024-01-15T10:42:18;29.97;;;15.60;;
58240;SDS011;45058;55.772;38.224;2024-01-15T10:44:44;28.37;;;17.00;;
58240;SDS011;45058;55.772;38.224;2024-01-15T10:47:12;29.43;;;17.43;;
58240;SDS011;45058;55.772;38.224;2024-01-15T10:49:39;29.90;;;17.23;;
58240;SDS011;45058;55.772;38.224;2024-01-15T10:52:06;30.20;;;16.70;;
58240;SDS011;45058;55.772;38.224;2024-01-15T10:54:32;29.23;;;17.47;;
58240;SDS011;45058;55.772;38.224;2024-01-15T10:56:58;31.27;;;16.90;;
58240;SDS011;45058;55.772;38.224;2024-01-15T10:59:24;27.80;;;16.00;;
58240;SDS011;45058;55.772;38.224;2024-01-15T11:01:51;28.70;;;16.93;;
58240;SDS011;45058;55.772;38.224;2024-01-15T11:04:21;31.67;;;17.47;;
58240;SDS011;45058;55.772;38.224;2024-01-15T11:06:52;28.00;;;16.73;;
58240;SDS011;45058;55.772;38.224;2024-01-15T11:09:22;27.30;;;17.03;;
58240;SDS011;45058;55.772;38.224;2024-01-15T11:11:50;29.33;;;17.63;;
58240;SDS011;45058;55.772;38.224;2024-01-15T11:17:10;29.03;;;16.97;;
58240;SDS011;45058;55.772;38.224;2024-01-15T11:19:37;28.40;;;17.47;;
58240;SDS011;45058;55.772;38.224;2024-01-15T11:22:49;31.03;;;18.33;;
58240;SDS011;45058;55.772;38.224;2024-01-15T11:24:57;28.63;;;17.47;;
58240;SDS011;45058;55.772;38.224;2024-01-15T11:27:39;29.03;;;17.43;;
58240;SDS011;45058;55.772;38.224;2024-01-15T11:30:09;29.70;;;17.57;;
58240;SDS011;45058;55.772;38.224;2024-01-15T11:32:37;32.40;;;18.63;;
58240;SDS011;45058;55.772;38.224;2024-01-15T11:35:07;30.93;;;17.77;;
58240;SDS011;45058;55.772;38.224;2024-01-15T11:43:02;30.73;;;18.07;;
58240;SDS011;45058;55.772;38.224;2024-01-15T11:45:28;27.13;;;16.83;;
58240;SDS011;45058;55.772;38.224;2024-01-15T11:50:45;29.07;;;16.47;;
58240;SDS011;45058;55.772;38.224;2024-01-15T11:55:44;29.80;;;17.10;;
58240;SDS011;45058;55.772;38.224;2024-01-15T11:58:12;26.30;;;16.90;;
58240;SDS011;45058;55.772;38.224;2024-01-15T12:00:40;30.17;;;16.80;;
58240;SDS011;45058;55.772;38.224;2024-01-15T12:03:08;31.57;;;18.53;;
58240;SDS011;45058;55.772;38.224;2024-01-15T12:05:36;28.20;;;16.67;;
58240;SDS011;45058;55.772;38.224;2024-01-15T12:08:03;30.17;;;17.93;;
58240;SDS011;45058;55.772;38.224;2024-01-15T12:10:29;30.37;;;16.87;;
58240;SDS011;45058;55.772;38.224;2024-01-15T12:12:59;26.17;;;16.23;;
58240;SDS011;45058;55.772;38.224;2024-01-15T12:15:28;29.87;;;17.20;;
58240;SDS011;45058;55.772;38.224;2024-01-15T12:17:56;33.23;;;18.30;;
58240;SDS011;45058;55.772;38.224;2024-01-15T12:20:26;30.63;;;17.23;;
58240;SDS011;45058;55.772;38.224;2024-01-15T12:22:53;31.23;;;18.03;;
58240;SDS011;45058;55.772;38.224;2024-01-15T12:25:21;31.87;;;17.97;;
58240;SDS011;45058;55.772;38.224;2024-01-15T12:27:48;31.97;;;17.87;;
58240;SDS011;45058;55.772;38.224;2024-01-15T12:30:14;31.17;;;17.67;;
58240;SDS011;45058;55.772;38.224;2024-01-15T12:32:41;29.33;;;16.43;;
58240;SDS011;45058;55.772;38.224;2024-01-15T12:35:08;29.97;;;16.27;;
58240;SDS011;45058;55.772;38.224;2024-01-15T12:37:44;26.30;;;15.43;;
58240;SDS011;45058;55.772;38.224;2024-01-15T12:40:12;29.10;;;16.93;;
58240;SDS011;45058;55.772;38.224;2024-01-15T12:42:40;28.50;;;15.97;;
58240;SDS011;45058;55.772;38.224;2024-01-15T12:45:06;28.20;;;16.40;;
58240;SDS011;45058;55.772;38.224;2024-01-15T12:47:34;26.97;;;16.63;;
58240;SDS011;45058;55.772;38.224;2024-01-15T12:50:00;27.17;;;16.50;;
58240;SDS011;45058;55.772;38.224;2024-01-15T12:52:27;27.93;;;16.20;;
58240;SDS011;45058;55.772;38.224;2024-01-15T12:54:53;27.70;;;16.27;;
58240;SDS011;45058;55.772;38.224;2024-01-15T12:57:19;29.10;;;17.37;;
58240;SDS011;45058;55.772;38.224;2024-01-15T12:59:45;26.10;;;16.07;;
58240;SDS011;45058;55.772;38.224;2024-01-15T13:02:15;27.90;;;16.60;;
58240;SDS011;45058;55.772;38.224;2024-01-15T13:04:42;29.93;;;18.00;;
58240;SDS011;45058;55.772;38.224;2024-01-15T13:07:08;30.23;;;18.07;;
58240;SDS011;45058;55.772;38.224;2024-01-15T13:09:34;29.67;;;17.53;;
58240;SDS011;45058;55.772;38.224;2024-01-15T13:12:01;31.97;;;17.43;;
58240;SDS011;45058;55.772;38.224;2024-01-15T13:14:28;28.63;;;16.60;;
58240;SDS011;45058;55.772;38.224;2024-01-15T13:16:54;29.67;;;18.60;;
58240;SDS011;45058;55.772;38.224;2024-01-15T13:19:21;27.67;;;17.17;;
58240;SDS011;45058;55.772;38.224;2024-01-15T13:21:48;27.87;;;17.30;;
58240;SDS011;45058;55.772;38.224;2024-01-15T13:24:15;31.97;;;17.43;;
58240;SDS011;45058;55.772;38.224;2024-01-15T13:26:42;29.10;;;16.90;;
58240;SDS011;45058;55.772;38.224;2024-01-15T13:29:08;27.67;;;17.10;;
58240;SDS011;45058;55.772;38.224;2024-01-15T13:31:34;27.97;;;17.90;;
58240;SDS011;45058;55.772;38.224;2024-01-15T13:34:00;31.30;;;18.43;;
58240;SDS011;45058;55.772;38.224;2024-01-15T13:36:27;33.80;;;17.97;;
58240;SDS011;45058;55.772;38.224;2024-01-15T13:38:53;32.07;;;18.47;;
58240;SDS011;45058;55.772;38.224;2024-01-15T13:41:20;34.90;;;19.83;;
58240;SDS011;45058;55.772;38.224;2024-01-15T13:43:54;36.67;;;20.07;;
58240;SDS011;45058;55.772;38.224;2024-01-15T13:46:25;32.23;;;19.87;;
58240;SDS011;45058;55.772;38.224;2024-01-15T13:48:55;35.87;;;19.53;;
58240;SDS011;45058;55.772;38.224;2024-01-15T13:51:22;33.50;;;20.50;;
58240;SDS011;45058;55.772;38.224;2024-01-15T13:53:50;34.93;;;20.90;;
58240;SDS011;45058;55.772;38.224;2024-01-15T13:56:16;37.17;;;20.83;;
58240;SDS011;45058;55.772;38.224;2024-01-15T13:58:43;37.23;;;21.13;;
58240;SDS011;45058;55.772;38.224;2024-01-15T14:01:09;37.63;;;21.23;;
58240;SDS011;45058;55.772;38.224;2024-01-15T14:03:36;40.77;;;22.37;;
58240;SDS011;45058;55.772;38.224;2024-01-15T14:06:02;37.17;;;21.37;;
58240;SDS011;45058;55.772;38.224;2024-01-15T14:08:30;42.83;;;22.17;;
58240;SDS011;45058;55.772;38.224;2024-01-15T14:10:56;41.20;;;25.27;;
58240;SDS011;45058;55.772;38.224;2024-01-15T14:13:23;40.17;;;22.43;;
58240;SDS011;45058;55.772;38.224;2024-01-15T14:15:49;43.83;;;24.37;;
58240;SDS011;45058;55.772;38.224;2024-01-15T14:18:16;40.20;;;23.23;;